sensor_id;sensor_type;location;lat;lon;timestamp;pressure;altitude;pressure_sealevel;temperature;humidity
72370;BME280;60343;-32.030;115.880;2023-04-24T00:02:38;101368.19;;;16.73;73.68
72370;BME280;60343;-32.030;115.880;2023-04-24T00:05:14;101373.00;;;16.78;75.15
72370;BME280;60343;-32.030;115.880;2023-04-24T00:07:49;101368.91;;;16.95;75.31
72370;BME280;60343;-32.030;115.880;2023-04-24T00:10:25;101374.78;;;17.05;75.69
72370;BME280;60343;-32.030;115.880;2023-04-24T00:12:59;101384.38;;;17.08;75.42
72370;BME280;60343;-32.030;115.880;2023-04-24T00:15:34;101376.22;;;17.01;76.29
72370;BME280;60343;-32.030;115.880;2023-04-24T00:18:14;101372.91;;;16.99;73.62
72370;BME280;60343;-32.030;115.880;2023-04-24T00:20:49;101388.06;;;16.94;74.69
72370;BME280;60343;-32.030;115.880;2023-04-24T00:23:23;101393.44;;;16.87;75.69
72370;BME280;60343;-32.030;115.880;2023-04-24T00:25:57;101387.47;;;16.98;75.41
72370;BME280;60343;-32.030;115.880;2023-04-24T00:28:32;101389.97;;;17.00;76.00
72370;BME280;60343;-32.030;115.880;2023-04-24T00:31:07;101396.03;;;17.08;75.21
72370;BME280;60343;-32.030;115.880;2023-04-24T00:33:47;101406.31;;;17.20;75.31
72370;BME280;60343;-32.030;115.880;2023-04-24T00:36:21;101403.41;;;17.28;74.93
72370;BME280;60343;-32.030;115.880;2023-04-24T00:38:56;101402.63;;;17.34;73.26
72370;BME280;60343;-32.030;115.880;2023-04-24T00:41:31;101409.31;;;17.44;73.78
72370;BME280;60343;-32.030;115.880;2023-04-24T00:44:06;101403.91;;;17.51;72.86
72370;BME280;60343;-32.030;115.880;2023-04-24T00:46:41;101405.59;;;17.52;70.48
72370;BME280;60343;-32.030;115.880;2023-04-24T00:49:25;101412.44;;;17.48;70.01
72370;BME280;60343;-32.030;115.880;2023-04-24T00:51:59;101406.41;;;17.52;67.64
72370;BME280;60343;-32.030;115.880;2023-04-24T00:54:35;101405.19;;;17.55;68.33
72370;BME280;60343;-32.030;115.880;2023-04-24T00:57:09;101416.53;;;17.78;68.31
72370;BME280;60343;-32.030;115.880;2023-04-24T00:59:45;101420.31;;;17.97;67.56
72370;BME280;60343;-32.030;115.880;2023-04-24T01:02:21;101413.66;;;18.06;68.65
72370;BME280;60343;-32.030;115.880;2023-04-24T01:05:02;101405.72;;;18.11;67.51
72370;BME280;60343;-32.030;115.880;2023-04-24T01:07:37;101397.63;;;18.37;65.97
72370;BME280;60343;-32.030;115.880;2023-04-24T01:10:14;101398.88;;;18.48;66.26
72370;BME280;60343;-32.030;115.880;2023-04-24T01:12:48;101397.22;;;18.54;67.40
72370;BME280;60343;-32.030;115.880;2023-04-24T01:15:23;101404.09;;;18.63;65.06
72370;BME280;60343;-32.030;115.880;2023-04-24T01:17:57;101404.84;;;19.03;62.86
72370;BME280;60343;-32.030;115.880;2023-04-24T01:20:38;101410.47;;;19.14;57.92
72370;BME280;60343;-32.030;115.880;2023-04-24T01:23:19;101405.75;;;19.86;54.13
72370;BME280;60343;-32.030;115.880;2023-04-24T01:25:54;101412.50;;;20.08;54.37
72370;BME280;60343;-32.030;115.880;2023-04-24T01:28:29;101422.09;;;19.79;54.65
72370;BME280;60343;-32.030;115.880;2023-04-24T01:31:04;101420.00;;;19.30;57.56
72370;BME280;60343;-32.030;115.880;2023-04-24T01:33:38;101422.81;;;19.04;56.06
72370;BME280;60343;-32.030;115.880;2023-04-24T01:36:13;101412.84;;;18.71;55.55
72370;BME280;60343;-32.030;115.880;2023-04-24T01:38:53;101403.66;;;18.85;58.34
72370;BME280;60343;-32.030;115.880;2023-04-24T01:41:28;101397.78;;;18.95;58.59
72370;BME280;60343;-32.030;115.880;2023-04-24T01:44:03;101396.56;;;18.78;58.55
72370;BME280;60343;-32.030;115.880;2023-04-24T01:46:38;101410.56;;;18.68;58.63
72370;BME280;60343;-32.030;115.880;2023-04-24T01:49:13;101408.25;;;18.78;57.04
72370;BME280;60343;-32.030;115.880;2023-04-24T01:51:48;101416.06;;;19.26;54.36
72370;BME280;60343;-32.030;115.880;2023-04-24T01:54:28;101422.22;;;19.59;52.45
72370;BME280;60343;-32.030;115.880;2023-04-24T01:57:02;101416.19;;;19.51;53.74
72370;BME280;60343;-32.030;115.880;2023-04-24T01:59:37;101429.38;;;19.34;55.31
72370;BME280;60343;-32.030;115.880;2023-04-24T02:02:11;101414.59;;;19.30;54.33
72370;BME280;60343;-32.030;115.880;2023-04-24T02:04:46;101421.13;;;19.09;56.21
72370;BME280;60343;-32.030;115.880;2023-04-24T02:07:21;101438.88;;;19.05;56.69
72370;BME280;60343;-32.030;115.880;2023-04-24T02:10:01;101443.38;;;19.82;57.52
72370;BME280;60343;-32.030;115.880;2023-04-24T02:12:36;101453.75;;;20.36;55.26
72370;BME280;60343;-32.030;115.880;2023-04-24T02:15:11;101448.81;;;20.51;54.34
72370;BME280;60343;-32.030;115.880;2023-04-24T02:17:45;101448.72;;;20.33;54.65
72370;BME280;60343;-32.030;115.880;2023-04-24T02:20:20;101443.63;;;19.81;55.74
72370;BME280;60343;-32.030;115.880;2023-04-24T02:22:54;101438.94;;;19.56;56.56
72370;BME280;60343;-32.030;115.880;2023-04-24T02:25:35;101418.09;;;19.37;57.90
72370;BME280;60343;-32.030;115.880;2023-04-24T02:28:09;101426.28;;;19.31;58.35
72370;BME280;60343;-32.030;115.880;2023-04-24T02:30:44;101425.00;;;19.33;58.35
72370;BME280;60343;-32.030;115.880;2023-04-24T02:33:18;101423.97;;;19.34;57.52
72370;BME280;60343;-32.030;115.880;2023-04-24T02:35:53;101420.16;;;19.42;57.00
72370;BME280;60343;-32.030;115.880;2023-04-24T02:38:27;101410.13;;;19.55;55.23
72370;BME280;60343;-32.030;115.880;2023-04-24T02:41:07;101400.63;;;20.02;53.13
72370;BME280;60343;-32.030;115.880;2023-04-24T02:43:42;101391.88;;;20.00;49.01
72370;BME280;60343;-32.030;115.880;2023-04-24T02:46:16;101401.91;;;20.00;48.54
72370;BME280;60343;-32.030;115.880;2023-04-24T02:48:51;101395.91;;;19.91;48.92
72370;BME280;60343;-32.030;115.880;2023-04-24T02:51:25;101405.31;;;19.89;48.18
72370;BME280;60343;-32.030;115.880;2023-04-24T02:54:00;101407.75;;;20.28;47.37
72370;BME280;60343;-32.030;115.880;2023-04-24T02:56:40;101409.06;;;20.50;46.78
72370;BME280;60343;-32.030;115.880;2023-04-24T02:59:15;101400.50;;;20.72;45.74
72370;BME280;60343;-32.030;115.880;2023-04-24T03:01:49;101394.91;;;20.85;45.12
72370;BME280;60343;-32.030;115.880;2023-04-24T03:04:24;101394.13;;;20.78;44.48
72370;BME280;60343;-32.030;115.880;2023-04-24T03:06:59;101404.47;;;20.51;45.74
72370;BME280;60343;-32.030;115.880;2023-04-24T03:09:34;101396.19;;;20.39;47.17
72370;BME280;60343;-32.030;115.880;2023-04-24T03:12:14;101399.91;;;20.45;46.54
72370;BME280;60343;-32.030;115.880;2023-04-24T03:14:51;101394.41;;;20.51;45.34
72370;BME280;60343;-32.030;115.880;2023-04-24T03:17:25;101384.97;;;20.54;46.16
72370;BME280;60343;-32.030;115.880;2023-04-24T03:20:00;101377.28;;;20.87;45.68
72370;BME280;60343;-32.030;115.880;2023-04-24T03:22:35;101366.66;;;21.22;42.71
72370;BME280;60343;-32.030;115.880;2023-04-24T03:25:10;101362.59;;;21.73;41.63
72370;BME280;60343;-32.030;115.880;2023-04-24T03:27:50;101363.34;;;22.21;41.16
72370;BME280;60343;-32.030;115.880;2023-04-24T03:30:25;101354.91;;;22.23;40.97
72370;BME280;60343;-32.030;115.880;2023-04-24T03:32:59;101361.84;;;21.96;40.67
72370;BME280;60343;-32.030;115.880;2023-04-24T03:35:34;101360.13;;;21.83;41.34
72370;BME280;60343;-32.030;115.880;2023-04-24T03:38:08;101358.78;;;21.62;40.84
72370;BME280;60343;-32.030;115.880;2023-04-24T03:40:43;101361.03;;;21.35;42.01
72370;BME280;60343;-32.030;115.880;2023-04-24T03:43:23;101364.31;;;21.26;42.71
72370;BME280;60343;-32.030;115.880;2023-04-24T03:45:57;101357.66;;;21.52;42.96
72370;BME280;60343;-32.030;115.880;2023-04-24T03:48:32;101356.63;;;21.34;46.16
72370;BME280;60343;-32.030;115.880;2023-04-24T03:51:06;101358.50;;;21.22;46.08
72370;BME280;60343;-32.030;115.880;2023-04-24T03:53:41;101352.28;;;21.15;46.23
72370;BME280;60343;-32.030;115.880;2023-04-24T03:56:15;101363.91;;;20.86;47.21
72370;BME280;60343;-32.030;115.880;2023-04-24T03:58:55;101364.91;;;20.48;48.97
72370;BME280;60343;-32.030;115.880;2023-04-24T04:01:30;101364.78;;;20.12;48.92
72370;BME280;60343;-32.030;115.880;2023-04-24T04:04:05;101355.34;;;19.90;49.42
72370;BME280;60343;-32.030;115.880;2023-04-24T04:06:39;101351.84;;;19.83;49.07
72370;BME280;60343;-32.030;115.880;2023-04-24T04:09:14;101367.69;;;19.61;47.65
72370;BME280;60343;-32.030;115.880;2023-04-24T04:11:49;101363.69;;;19.63;46.95
72370;BME280;60343;-32.030;115.880;2023-04-24T04:14:29;101368.25;;;19.69;44.45
72370;BME280;60343;-32.030;115.880;2023-04-24T04:17:03;101359.44;;;19.74;44.95
72370;BME280;60343;-32.030;115.880;2023-04-24T04:19:38;101365.69;;;19.75;46.86
72370;BME280;60343;-32.030;115.880;2023-04-24T04:22:12;101377.78;;;19.79;49.00
72370;BME280;60343;-32.030;115.880;2023-04-24T04:24:46;101370.97;;;20.01;47.82
72370;BME280;60343;-32.030;115.880;2023-04-24T04:27:21;101372.84;;;20.25;46.86
72370;BME280;60343;-32.030;115.880;2023-04-24T04:30:02;101377.44;;;20.25;48.07
72370;BME280;60343;-32.030;115.880;2023-04-24T04:32:37;101386.97;;;20.09;47.00
72370;BME280;60343;-32.030;115.880;2023-04-24T04:35:11;101375.16;;;19.97;48.45
72370;BME280;60343;-32.030;115.880;2023-04-24T04:37:46;101381.34;;;19.79;45.80
72370;BME280;60343;-32.030;115.880;2023-04-24T04:40:20;101358.78;;;19.79;47.26
72370;BME280;60343;-32.030;115.880;2023-04-24T04:42:55;101358.69;;;19.60;46.70
72370;BME280;60343;-32.030;115.880;2023-04-24T04:45:39;101361.69;;;19.46;47.12
72370;BME280;60343;-32.030;115.880;2023-04-24T04:48:15;101364.91;;;19.23;50.49
72370;BME280;60343;-32.030;115.880;2023-04-24T04:50:50;101391.53;;;18.88;54.81
72370;BME280;60343;-32.030;115.880;2023-04-24T04:53:24;101388.66;;;18.50;56.38
72370;BME280;60343;-32.030;115.880;2023-04-24T04:55:59;101384.47;;;18.21;58.22
72370;BME280;60343;-32.030;115.880;2023-04-24T04:58:33;101385.94;;;18.17;56.02
72370;BME280;60343;-32.030;115.880;2023-04-24T05:01:13;101373.66;;;18.28;56.34
72370;BME280;60343;-32.030;115.880;2023-04-24T05:03:48;101373.03;;;18.46;53.97
72370;BME280;60343;-32.030;115.880;2023-04-24T05:06:23;101357.56;;;18.72;54.74
72370;BME280;60343;-32.030;115.880;2023-04-24T05:08:58;101362.91;;;18.99;52.79
72370;BME280;60343;-32.030;115.880;2023-04-24T05:11:33;101366.03;;;19.02;53.75
72370;BME280;60343;-32.030;115.880;2023-04-24T05:14:07;101369.16;;;18.99;52.17
72370;BME280;60343;-32.030;115.880;2023-04-24T05:16:50;101358.81;;;19.27;50.14
72370;BME280;60343;-32.030;115.880;2023-04-24T05:19:25;101356.91;;;19.35;47.86
72370;BME280;60343;-32.030;115.880;2023-04-24T05:22:00;101353.03;;;19.62;47.55
72370;BME280;60343;-32.030;115.880;2023-04-24T05:24:34;101350.81;;;20.08;46.83
72370;BME280;60343;-32.030;115.880;2023-04-24T05:27:09;101347.03;;;20.59;45.87
72370;BME280;60343;-32.030;115.880;2023-04-24T05:29:43;101344.41;;;20.71;45.09
72370;BME280;60343;-32.030;115.880;2023-04-24T05:32:24;101343.63;;;20.64;46.74
72370;BME280;60343;-32.030;115.880;2023-04-24T05:34:58;101348.38;;;20.50;46.06
72370;BME280;60343;-32.030;115.880;2023-04-24T05:37:33;101362.34;;;20.29;45.23
72370;BME280;60343;-32.030;115.880;2023-04-24T05:40:08;101360.66;;;19.78;47.06
72370;BME280;60343;-32.030;115.880;2023-04-24T05:42:43;101380.59;;;19.21;52.24
72370;BME280;60343;-32.030;115.880;2023-04-24T05:45:17;101383.56;;;19.00;53.20
72370;BME280;60343;-32.030;115.880;2023-04-24T05:47:58;101391.56;;;18.42;52.35
72370;BME280;60343;-32.030;115.880;2023-04-24T05:50:33;101393.66;;;18.40;54.06
72370;BME280;60343;-32.030;115.880;2023-04-24T05:53:07;101388.66;;;18.30;54.06
72370;BME280;60343;-32.030;115.880;2023-04-24T05:55:42;101398.88;;;18.09;54.71
72370;BME280;60343;-32.030;115.880;2023-04-24T05:58:16;101407.81;;;18.02;55.57
72370;BME280;60343;-32.030;115.880;2023-04-24T06:00:51;101399.47;;;17.97;55.13
72370;BME280;60343;-32.030;115.880;2023-04-24T06:03:31;101400.94;;;18.00;55.43
72370;BME280;60343;-32.030;115.880;2023-04-24T06:06:07;101399.84;;;17.81;57.92
72370;BME280;60343;-32.030;115.880;2023-04-24T06:08:42;101396.34;;;17.94;58.87
72370;BME280;60343;-32.030;115.880;2023-04-24T06:11:16;101399.50;;;18.04;57.60
72370;BME280;60343;-32.030;115.880;2023-04-24T06:13:50;101399.47;;;17.97;58.49
72370;BME280;60343;-32.030;115.880;2023-04-24T06:16:25;101405.69;;;17.78;59.49
72370;BME280;60343;-32.030;115.880;2023-04-24T06:19:05;101410.47;;;17.76;59.14
72370;BME280;60343;-32.030;115.880;2023-04-24T06:21:40;101410.69;;;17.81;60.28
72370;BME280;60343;-32.030;115.880;2023-04-24T06:24:15;101409.41;;;17.71;60.87
72370;BME280;60343;-32.030;115.880;2023-04-24T06:26:50;101409.41;;;17.64;61.28
72370;BME280;60343;-32.030;115.880;2023-04-24T06:29:26;101398.59;;;17.64;62.22
72370;BME280;60343;-32.030;115.880;2023-04-24T06:32:00;101396.94;;;17.70;62.34
72370;BME280;60343;-32.030;115.880;2023-04-24T06:34:40;101388.63;;;17.91;61.35
72370;BME280;60343;-32.030;115.880;2023-04-24T06:37:15;101391.38;;;18.11;61.98
72370;BME280;60343;-32.030;115.880;2023-04-24T06:39:50;101403.25;;;18.29;60.81
72370;BME280;60343;-32.030;115.880;2023-04-24T06:42:24;101397.41;;;18.39;61.96
72370;BME280;60343;-32.030;115.880;2023-04-24T06:44:59;101396.38;;;18.66;61.86
72370;BME280;60343;-32.030;115.880;2023-04-24T06:47:33;101401.16;;;18.84;63.85
72370;BME280;60343;-32.030;115.880;2023-04-24T06:50:13;101396.50;;;19.11;61.81
72370;BME280;60343;-32.030;115.880;2023-04-24T06:52:48;101398.63;;;18.82;61.02
72370;BME280;60343;-32.030;115.880;2023-04-24T06:55:23;101389.25;;;18.52;62.85
72370;BME280;60343;-32.030;115.880;2023-04-24T06:57:58;101388.03;;;18.48;62.30
72370;BME280;60343;-32.030;115.880;2023-04-24T07:00:33;101393.66;;;18.40;63.34
72370;BME280;60343;-32.030;115.880;2023-04-24T07:03:08;101384.06;;;18.70;62.98
72370;BME280;60343;-32.030;115.880;2023-04-24T07:05:48;101384.38;;;19.07;62.13
72370;BME280;60343;-32.030;115.880;2023-04-24T07:08:22;101378.44;;;19.36;61.45
72370;BME280;60343;-32.030;115.880;2023-04-24T07:10:58;101385.47;;;19.44;60.80
72370;BME280;60343;-32.030;115.880;2023-04-24T07:13:33;101372.44;;;19.21;58.42
72370;BME280;60343;-32.030;115.880;2023-04-24T07:16:09;101371.88;;;18.99;55.34
72370;BME280;60343;-32.030;115.880;2023-04-24T07:18:43;101384.41;;;19.00;51.44
72370;BME280;60343;-32.030;115.880;2023-04-24T07:21:23;101377.09;;;19.01;50.57
72370;BME280;60343;-32.030;115.880;2023-04-24T07:23:58;101378.59;;;18.90;50.65
72370;BME280;60343;-32.030;115.880;2023-04-24T07:26:36;101378.22;;;18.73;51.93
72370;BME280;60343;-32.030;115.880;2023-04-24T07:29:11;101381.97;;;18.85;51.35
72370;BME280;60343;-32.030;115.880;2023-04-24T07:31:46;101380.22;;;19.11;48.35
72370;BME280;60343;-32.030;115.880;2023-04-24T07:34:21;101382.16;;;18.84;50.09
72370;BME280;60343;-32.030;115.880;2023-04-24T07:37:01;101384.47;;;18.80;51.85
72370;BME280;60343;-32.030;115.880;2023-04-24T07:39:36;101379.63;;;18.96;49.91
72370;BME280;60343;-32.030;115.880;2023-04-24T07:42:10;101373.56;;;19.00;50.98
72370;BME280;60343;-32.030;115.880;2023-04-24T07:44:45;101377.69;;;19.16;49.34
72370;BME280;60343;-32.030;115.880;2023-04-24T07:47:20;101377.88;;;19.21;51.81
72370;BME280;60343;-32.030;115.880;2023-04-24T07:49:55;101381.81;;;19.25;51.09
72370;BME280;60343;-32.030;115.880;2023-04-24T07:52:39;101378.00;;;19.33;52.12
72370;BME280;60343;-32.030;115.880;2023-04-24T07:55:12;101382.66;;;19.19;52.27
72370;BME280;60343;-32.030;115.880;2023-04-24T07:57:47;101376.47;;;18.99;52.53
72370;BME280;60343;-32.030;115.880;2023-04-24T08:00:21;101393.59;;;18.99;50.02
72370;BME280;60343;-32.030;115.880;2023-04-24T08:02:57;101388.97;;;19.06;47.66
72370;BME280;60343;-32.030;115.880;2023-04-24T08:05:32;101379.66;;;18.82;50.21
72370;BME280;60343;-32.030;115.880;2023-04-24T08:08:12;101386.94;;;18.89;49.99
72370;BME280;60343;-32.030;115.880;2023-04-24T08:10:47;101382.16;;;18.77;49.78
72370;BME280;60343;-32.030;115.880;2023-04-24T08:13:22;101388.94;;;19.13;46.35
72370;BME280;60343;-32.030;115.880;2023-04-24T08:15:57;101388.19;;;18.93;46.82
72370;BME280;60343;-32.030;115.880;2023-04-24T08:18:31;101395.72;;;18.91;47.63
72370;BME280;60343;-32.030;115.880;2023-04-24T08:21:06;101400.31;;;18.83;48.34
72370;BME280;60343;-32.030;115.880;2023-04-24T08:23:49;101391.13;;;18.71;47.41
72370;BME280;60343;-32.030;115.880;2023-04-24T08:26:24;101386.16;;;18.29;48.61
72370;BME280;60343;-32.030;115.880;2023-04-24T08:28:59;101384.91;;;18.25;49.88
72370;BME280;60343;-32.030;115.880;2023-04-24T08:31:34;101389.91;;;18.21;50.73
72370;BME280;60343;-32.030;115.880;2023-04-24T08:34:09;101384.06;;;18.05;51.42
72370;BME280;60343;-32.030;115.880;2023-04-24T08:36:44;101392.38;;;17.96;51.96
72370;BME280;60343;-32.030;115.880;2023-04-24T08:39:25;101390.31;;;17.85;53.14
72370;BME280;60343;-32.030;115.880;2023-04-24T08:42:00;101394.25;;;17.83;53.26
72370;BME280;60343;-32.030;115.880;2023-04-24T08:44:36;101391.53;;;17.83;53.06
72370;BME280;60343;-32.030;115.880;2023-04-24T08:47:11;101389.84;;;17.69;54.57
72370;BME280;60343;-32.030;115.880;2023-04-24T08:49:46;101394.00;;;17.71;54.91
72370;BME280;60343;-32.030;115.880;2023-04-24T08:52:22;101395.91;;;17.77;55.09
72370;BME280;60343;-32.030;115.880;2023-04-24T08:55:02;101380.66;;;17.63;54.44
72370;BME280;60343;-32.030;115.880;2023-04-24T08:57:37;101385.25;;;17.69;54.85
72370;BME280;60343;-32.030;115.880;2023-04-24T09:00:13;101387.56;;;17.72;55.43
72370;BME280;60343;-32.030;115.880;2023-04-24T09:02:49;101387.31;;;17.61;54.14
72370;BME280;60343;-32.030;115.880;2023-04-24T09:05:24;101389.34;;;17.52;54.42
72370;BME280;60343;-32.030;115.880;2023-04-24T09:08:00;101384.13;;;17.44;55.34
72370;BME280;60343;-32.030;115.880;2023-04-24T09:10:42;101380.53;;;17.37;54.71
72370;BME280;60343;-32.030;115.880;2023-04-24T09:13:16;101380.50;;;17.30;54.36
72370;BME280;60343;-32.030;115.880;2023-04-24T09:15:52;101384.84;;;17.18;53.96
72370;BME280;60343;-32.030;115.880;2023-04-24T09:18:28;101389.19;;;17.12;54.28
72370;BME280;60343;-32.030;115.880;2023-04-24T09:21:04;101393.72;;;17.05;54.39
72370;BME280;60343;-32.030;115.880;2023-04-24T09:23:40;101386.19;;;16.94;54.40
72370;BME280;60343;-32.030;115.880;2023-04-24T09:26:22;101389.69;;;16.88;54.48
72370;BME280;60343;-32.030;115.880;2023-04-24T09:28:57;101398.63;;;16.89;54.34
72370;BME280;60343;-32.030;115.880;2023-04-24T09:31:31;101403.53;;;16.72;55.24
72370;BME280;60343;-32.030;115.880;2023-04-24T09:34:06;101395.59;;;16.70;56.04
72370;BME280;60343;-32.030;115.880;2023-04-24T09:36:41;101399.03;;;16.58;56.19
72370;BME280;60343;-32.030;115.880;2023-04-24T09:39:17;101404.00;;;16.54;55.94
72370;BME280;60343;-32.030;115.880;2023-04-24T09:41:57;101400.25;;;16.55;55.63
72370;BME280;60343;-32.030;115.880;2023-04-24T09:44:35;101409.97;;;16.50;55.76
72370;BME280;60343;-32.030;115.880;2023-04-24T09:47:10;101406.41;;;16.43;55.54
72370;BME280;60343;-32.030;115.880;2023-04-24T09:49:45;101409.47;;;16.61;54.67
72370;BME280;60343;-32.030;115.880;2023-04-24T09:52:19;101415.38;;;16.50;55.30
72370;BME280;60343;-32.030;115.880;2023-04-24T09:54:55;101421.19;;;16.47;55.99
72370;BME280;60343;-32.030;115.880;2023-04-24T09:57:35;101420.31;;;16.40;56.60
72370;BME280;60343;-32.030;115.880;2023-04-24T10:00:11;101420.59;;;16.23;57.30
72370;BME280;60343;-32.030;115.880;2023-04-24T10:02:45;101426.75;;;16.17;56.89
72370;BME280;60343;-32.030;115.880;2023-04-24T10:05:26;101435.13;;;16.22;55.70
72370;BME280;60343;-32.030;115.880;2023-04-24T10:08:06;101438.19;;;16.41;54.95
72370;BME280;60343;-32.030;115.880;2023-04-24T10:10:42;101447.81;;;16.50;55.95
72370;BME280;60343;-32.030;115.880;2023-04-24T10:13:23;101448.47;;;16.73;58.74
72370;BME280;60343;-32.030;115.880;2023-04-24T10:16:00;101451.78;;;16.75;59.17
72370;BME280;60343;-32.030;115.880;2023-04-24T10:18:35;101458.38;;;16.66;59.71
72370;BME280;60343;-32.030;115.880;2023-04-24T10:21:10;101472.88;;;16.58;59.50
72370;BME280;60343;-32.030;115.880;2023-04-24T10:23:45;101474.97;;;16.42;59.98
72370;BME280;60343;-32.030;115.880;2023-04-24T10:26:20;101474.88;;;16.28;61.00
72370;BME280;60343;-32.030;115.880;2023-04-24T10:29:02;101469.72;;;16.12;61.83
72370;BME280;60343;-32.030;115.880;2023-04-24T10:31:38;101480.06;;;15.87;63.17
72370;BME280;60343;-32.030;115.880;2023-04-24T10:34:15;101488.16;;;15.87;63.99
72370;BME280;60343;-32.030;115.880;2023-04-24T10:36:52;101489.03;;;15.73;64.23
72370;BME280;60343;-32.030;115.880;2023-04-24T10:39:27;101486.72;;;15.56;64.87
72370;BME280;60343;-32.030;115.880;2023-04-24T10:42:03;101485.78;;;15.49;65.20
72370;BME280;60343;-32.030;115.880;2023-04-24T10:44:54;101482.97;;;15.42;65.12
72370;BME280;60343;-32.030;115.880;2023-04-24T10:47:29;101482.72;;;15.37;65.92
72370;BME280;60343;-32.030;115.880;2023-04-24T10:50:09;101482.78;;;15.14;65.96
72370;BME280;60343;-32.030;115.880;2023-04-24T10:52:46;101490.03;;;14.99;66.61
72370;BME280;60343;-32.030;115.880;2023-04-24T10:55:43;101480.06;;;14.70;67.52
72370;BME280;60343;-32.030;115.880;2023-04-24T10:58:22;101482.72;;;14.55;68.21
72370;BME280;60343;-32.030;115.880;2023-04-24T11:01:03;101494.13;;;14.35;68.68
72370;BME280;60343;-32.030;115.880;2023-04-24T11:03:37;101491.91;;;14.15;69.06
72370;BME280;60343;-32.030;115.880;2023-04-24T11:06:14;101498.50;;;14.13;69.86
72370;BME280;60343;-32.030;115.880;2023-04-24T11:08:52;101489.22;;;13.93;70.22
72370;BME280;60343;-32.030;115.880;2023-04-24T11:11:32;101492.94;;;13.84;70.98
72370;BME280;60343;-32.030;115.880;2023-04-24T11:14:10;101489.13;;;13.78;71.24
72370;BME280;60343;-32.030;115.880;2023-04-24T11:16:58;101498.78;;;13.64;71.68
72370;BME280;60343;-32.030;115.880;2023-04-24T11:19:36;101493.78;;;13.53;71.55
72370;BME280;60343;-32.030;115.880;2023-04-24T11:22:15;101496.19;;;13.40;72.34
72370;BME280;60343;-32.030;115.880;2023-04-24T11:25:00;101497.56;;;13.28;72.91
72370;BME280;60343;-32.030;115.880;2023-04-24T11:27:40;101508.69;;;13.25;72.94
72370;BME280;60343;-32.030;115.880;2023-04-24T11:30:18;101511.88;;;13.20;73.33
72370;BME280;60343;-32.030;115.880;2023-04-24T11:33:02;101512.88;;;13.19;73.68
72370;BME280;60343;-32.030;115.880;2023-04-24T11:35:40;101523.44;;;13.29;74.20
72370;BME280;60343;-32.030;115.880;2023-04-24T11:38:15;101522.59;;;13.28;74.12
72370;BME280;60343;-32.030;115.880;2023-04-24T11:40:52;101529.19;;;13.26;74.86
72370;BME280;60343;-32.030;115.880;2023-04-24T11:43:29;101532.72;;;13.18;74.80
72370;BME280;60343;-32.030;115.880;2023-04-24T11:46:04;101529.53;;;13.07;74.98
72370;BME280;60343;-32.030;115.880;2023-04-24T11:48:46;101537.28;;;13.02;74.95
72370;BME280;60343;-32.030;115.880;2023-04-24T11:51:20;101549.69;;;12.95;74.91
72370;BME280;60343;-32.030;115.880;2023-04-24T11:53:56;101564.47;;;12.99;75.69
72370;BME280;60343;-32.030;115.880;2023-04-24T11:56:31;101560.97;;;13.14;76.03
72370;BME280;60343;-32.030;115.880;2023-04-24T11:59:05;101558.09;;;13.32;75.46
72370;BME280;60343;-32.030;115.880;2023-04-24T12:01:44;101564.34;;;13.71;73.84
72370;BME280;60343;-32.030;115.880;2023-04-24T12:04:25;101575.56;;;14.14;71.66
72370;BME280;60343;-32.030;115.880;2023-04-24T12:07:02;101581.88;;;14.29;71.00
72370;BME280;60343;-32.030;115.880;2023-04-24T12:09:44;101581.16;;;14.35;71.17
72370;BME280;60343;-32.030;115.880;2023-04-24T12:12:19;101584.88;;;14.42;70.65
72370;BME280;60343;-32.030;115.880;2023-04-24T12:14:54;101601.22;;;14.33;71.14
72370;BME280;60343;-32.030;115.880;2023-04-24T12:17:29;101601.09;;;14.26;72.69
72370;BME280;60343;-32.030;115.880;2023-04-24T12:20:11;101602.16;;;14.17;73.78
72370;BME280;60343;-32.030;115.880;2023-04-24T12:22:47;101598.53;;;14.02;75.37
72370;BME280;60343;-32.030;115.880;2023-04-24T12:25:22;101598.59;;;13.86;76.19
72370;BME280;60343;-32.030;115.880;2023-04-24T12:28:10;101604.53;;;13.65;77.37
72370;BME280;60343;-32.030;115.880;2023-04-24T12:30:47;101609.63;;;13.44;78.18
72370;BME280;60343;-32.030;115.880;2023-04-24T12:33:22;101623.28;;;13.26;79.46
72370;BME280;60343;-32.030;115.880;2023-04-24T12:36:03;101619.44;;;13.20;80.36
72370;BME280;60343;-32.030;115.880;2023-04-24T12:38:42;101619.78;;;13.17;80.47
72370;BME280;60343;-32.030;115.880;2023-04-24T12:41:17;101627.63;;;13.03;81.06
72370;BME280;60343;-32.030;115.880;2023-04-24T12:43:55;101632.34;;;13.01;81.29
72370;BME280;60343;-32.030;115.880;2023-04-24T12:46:30;101638.38;;;12.95;81.55
72370;BME280;60343;-32.030;115.880;2023-04-24T12:49:05;101646.09;;;12.89;82.21
72370;BME280;60343;-32.030;115.880;2023-04-24T12:51:45;101642.44;;;12.82;82.23
72370;BME280;60343;-32.030;115.880;2023-04-24T12:54:19;101638.38;;;12.78;82.25
72370;BME280;60343;-32.030;115.880;2023-04-24T12:56:53;101659.50;;;12.73;83.02
72370;BME280;60343;-32.030;115.880;2023-04-24T12:59:28;101651.09;;;12.68;83.13
72370;BME280;60343;-32.030;115.880;2023-04-24T13:02:02;101640.38;;;12.60;83.41
72370;BME280;60343;-32.030;115.880;2023-04-24T13:04:37;101640.38;;;12.60;83.52
72370;BME280;60343;-32.030;115.880;2023-04-24T13:07:17;101635.84;;;12.69;83.91